This is the latest recevied weather packets stored in our database for station/object KI4HRG. If no packets are shown the sender has not sent any weather packets the latest 10 day(s).
| Time | Temp. | Humidity | Pressure | Rain* | Wind** | Luminosity | Snow |
|---|---|---|---|---|---|---|---|
| 1787778011 | 28.89° C | 82% | 1015.3 hPa | 0 mm | - | 122 W/m² | - |
| 1787777704 | 28.89° C | 83% | 1014.9 hPa | 0 mm | - | 202 W/m² | - |
| 1787777401 | 29.44° C | 78% | 1014.8 hPa | 0 mm | - | 171 W/m² | - |
| 1787777101 | 30° C | 73% | 1014.3 hPa | 0 mm | - | 119 W/m² | - |
| 1787776799 | 31.67° C | 65% | 1014.6 hPa | 0 mm | - | 87 W/m² | - |
| 1787776498 | 32.22° C | 64% | 1014.3 hPa | 0 mm | - | 73 W/m² | - |
| 1787776196 | 32.78° C | 59% | 1014.4 hPa | 0 mm | - | 66 W/m² | - |
| 1787775891 | 32.78° C | 57% | 1014.3 hPa | 0 mm | - | 44 W/m² | - |
| 1787775585 | 32.78° C | 56% | 1014.6 hPa | 0 mm | - | 35 W/m² | - |
| 1787775283 | 32.78° C | 57% | 1014.4 hPa | 0 mm | - | 63 W/m² | - |
| 1787774977 | 32.78° C | 57% | 1014.7 hPa | 0 mm | - | 62 W/m² | - |
| 1787774672 | 32.78° C | 57% | 1014.6 hPa | 0 mm | - | 50 W/m² | - |
| 1787774371 | 32.78° C | 56% | 1014.7 hPa | 0 mm | - | 48 W/m² | - |
| 1787774066 | 32.78° C | 55% | 1014.6 hPa | 0 mm | - | 51 W/m² | - |
| 1787773765 | 33.33° C | 55% | 1014.6 hPa | 0 mm | - | 62 W/m² | - |
| 1787773460 | 33.33° C | 54% | 1014.7 hPa | 0 mm | - | 84 W/m² | - |
| 1787773155 | 33.33° C | 53% | 1014.8 hPa | 0 mm | - | 87 W/m² | - |
| 1787772850 | 33.89° C | 52% | 1014.8 hPa | 0 mm | - | 103 W/m² | - |
| 1787772549 | 33.33° C | 52% | 1015 hPa | 0 mm | - | 91 W/m² | - |
| 1787772248 | 33.89° C | 52% | 1014.8 hPa | 0 mm | - | 111 W/m² | - |
| 1787771947 | 33.89° C | 52% | 1014.9 hPa | 0 mm | - | 127 W/m² | - |
| 1787771642 | 35° C | 49% | 1014.8 hPa | 0 mm | - | 316 W/m² | - |
| 1787771337 | 33.89° C | 52% | 1014.9 hPa | 0 mm | - | 668 W/m² | - |
| 1787771032 | 33.89° C | 52% | 1014.9 hPa | 0 mm | - | 438 W/m² | - |
| 1787770730 | 34.44° C | 51% | 1015 hPa | 0 mm | - | 623 W/m² | - |
* Rain latest hour (hover to see other rain measurements)
** Current wind speed in m/s (hover to see current wind gust speed)